Time;durP1;ratioP1;P1;durP2;ratioP2;P2;SDS_P1;SDS_P2;PMS_P1;PMS_P2;Temp;Humidity;BMP_temperature;BMP_pressure;BME280_temperature;BME280_humidity;BME280_pressure;Samples;Min_cycle;Max_cycle;Signal;HPM_P1;HPM_P2
2023/03/21 00:01:54;;;;;;;5.70;3.53;;;11.20;74.20;;;;;;5046997;28;20213;-74
2023/03/21 00:04:22;;;;;;;7.37;3.20;;;11.20;73.90;;;;;;5049722;28;20438;-74
2023/03/21 00:06:47;;;;;;;5.50;3.70;;;11.20;73.70;;;;;;5049188;28;20691;-75
2023/03/21 00:09:13;;;;;;;6.40;3.30;;;11.20;73.90;;;;;;5048543;28;20433;-73
2023/03/21 00:11:39;;;;;;;6.10;3.40;;;11.20;74.00;;;;;;5046908;28;20211;-77
2023/03/21 00:14:07;;;;;;;6.33;3.70;;;11.10;74.60;;;;;;5028174;28;20200;-76
2023/03/21 00:16:34;;;;;;;5.67;3.30;;;11.20;74.80;;;;;;5049699;28;20675;-76
2023/03/21 00:19:02;;;;;;;4.90;3.43;;;11.20;75.10;;;;;;5050270;28;20423;-76
2023/03/21 00:21:31;;;;;;;4.70;3.50;;;11.20;75.40;;;;;;5054992;28;20953;-75
2023/03/21 00:23:57;;;;;;;8.70;3.50;;;11.10;75.50;;;;;;5052572;28;20481;-76
2023/03/21 00:26:23;;;;;;;6.77;3.37;;;11.10;75.70;;;;;;5057507;28;20435;-76
2023/03/21 00:28:49;;;;;;;4.43;3.07;;;11.10;76.10;;;;;;5047535;28;20427;-76
2023/03/21 00:31:15;;;;;;;5.03;3.27;;;11.10;76.40;;;;;;5048665;28;20212;-74
2023/03/21 00:33:41;;;;;;;4.00;2.70;;;11.10;76.40;;;;;;5046454;28;20925;-75
2023/03/21 00:36:08;;;;;;;5.90;3.73;;;11.10;76.40;;;;;;5051333;28;20426;-75
2023/03/21 00:38:35;;;;;;;3.80;2.57;;;11.10;76.20;;;;;;5052779;28;20180;-74
2023/03/21 00:41:04;;;;;;;6.50;3.00;;;11.10;76.20;;;;;;5050122;28;20474;-75
2023/03/21 00:43:29;;;;;;;4.87;3.10;;;11.10;76.10;;;;;;5052067;28;20450;-76
2023/03/21 00:45:59;;;;;;;4.30;2.90;;;11.10;76.10;;;;;;5052399;28;20467;-75
2023/03/21 00:48:26;;;;;;;4.50;2.80;;;11.10;76.10;;;;;;5044005;28;20215;-74
2023/03/21 00:50:53;;;;;;;4.33;3.03;;;11.10;75.90;;;;;;5044779;28;20470;-74
2023/03/21 00:53:20;;;;;;;6.10;3.17;;;11.10;75.50;;;;;;5044177;28;20565;-74
2023/03/21 00:55:46;;;;;;;4.60;3.10;;;11.00;75.80;;;;;;5034948;28;20435;-75
2023/03/21 00:58:12;;;;;;;6.07;3.50;;;11.00;76.10;;;;;;5044403;28;20952;-75
2023/03/21 01:00:38;;;;;;;4.53;2.70;;;11.00;76.20;;;;;;5046765;28;20455;-76
2023/03/21 01:03:06;;;;;;;3.83;2.80;;;11.00;76.20;;;;;;5031624;28;20193;-76
2023/03/21 01:06:18;;;;;;;5.67;2.80;;;11.00;76.20;;;;;;5053052;28;20422;-76
2023/03/21 01:08:38;;;;;;;5.77;3.07;;;10.90;76.40;;;;;;5043125;28;20463;-76
2023/03/21 01:11:07;;;;;;;4.17;2.60;;;10.80;76.40;;;;;;5047299;28;20454;-75
2023/03/21 01:13:33;;;;;;;4.97;2.90;;;10.80;76.40;;;;;;5046729;28;20447;-77
2023/03/21 01:15:59;;;;;;;4.50;3.20;;;10.90;76.10;;;;;;5052578;28;20516;-76
2023/03/21 01:18:28;;;;;;;5.40;3.27;;;10.90;76.10;;;;;;5032969;28;20339;-76
2023/03/21 01:20:55;;;;;;;5.13;3.43;;;10.80;76.20;;;;;;5048184;28;20295;-75
2023/03/21 01:23:22;;;;;;;5.20;3.00;;;10.80;76.40;;;;;;5029212;28;20519;-75
2023/03/21 01:25:49;;;;;;;4.43;2.57;;;10.80;76.50;;;;;;5043289;28;20565;-76
2023/03/21 01:28:15;;;;;;;5.20;3.00;;;10.80;76.70;;;;;;5049577;28;20427;-75
2023/03/21 01:30:49;;;;;;;5.30;2.70;;;10.90;76.70;;;;;;5031491;28;21157;-75
2023/03/21 01:33:15;;;;;;;4.33;2.97;;;10.80;76.70;;;;;;5038361;28;20688;-75
2023/03/21 01:35:41;;;;;;;5.67;3.47;;;10.90;76.70;;;;;;5054534;28;20430;-76
2023/03/21 01:38:08;;;;;;;5.80;3.20;;;10.90;76.70;;;;;;5050611;28;21049;-77
2023/03/21 01:40:35;;;;;;;5.73;3.17;;;10.90;76.70;;;;;;5048886;28;20475;-76
2023/03/21 01:43:02;;;;;;;7.60;3.30;;;10.80;76.50;;;;;;5050959;28;20480;-76
2023/03/21 01:46:07;;;;;;;6.90;3.30;;;10.80;76.40;;;;;;5050704;28;20415;-74
2023/03/21 01:48:34;;;;;;;5.03;3.00;;;10.80;76.40;;;;;;5048393;28;20469;-76
2023/03/21 01:51:00;;;;;;;5.93;2.97;;;10.80;76.20;;;;;;5048607;28;20473;-75
2023/03/21 01:53:29;;;;;;;4.07;3.03;;;10.70;76.20;;;;;;5049409;28;21235;-74
2023/03/21 01:56:25;;;;;;;6.13;3.10;;;10.70;76.40;;;;;;5032346;28;20423;-75
2023/03/21 01:58:54;;;;;;;7.50;2.97;;;10.70;76.40;;;;;;5048646;28;20485;-75
2023/03/21 02:01:21;;;;;;;3.67;2.50;;;10.70;76.50;;;;;;5040331;28;20451;-75
2023/03/21 02:03:49;;;;;;;5.90;2.67;;;10.80;76.50;;;;;;5044504;28;20415;-75
2023/03/21 02:06:29;;;;;;;4.90;2.70;;;10.80;76.50;;;;;;5050578;28;20805;-75
2023/03/21 02:08:57;;;;;;;4.73;3.37;;;10.80;76.20;;;;;;5047648;28;20407;-75
2023/03/21 02:11:23;;;;;;;5.30;2.80;;;10.80;76.10;;;;;;5042632;28;20825;-75
2023/03/21 02:13:48;;;;;;;6.10;3.20;;;10.80;75.90;;;;;;5046434;28;20921;-75
2023/03/21 02:16:45;;;;;;;5.40;2.90;;;10.70;75.90;;;;;;5050857;28;20411;-74
2023/03/21 02:19:38;;;;;;;6.47;3.90;;;10.70;75.90;;;;;;5042392;28;20209;-74
2023/03/21 02:22:21;;;;;;;3.83;2.80;;;10.60;76.20;;;;;;5040866;28;20451;-76
2023/03/21 02:24:59;;;;;;;5.60;3.60;;;10.60;76.10;;;;;;5050906;28;20533;-76
2023/03/21 02:27:26;;;;;;;4.90;2.70;;;10.60;76.20;;;;;;5032538;28;20514;-74
2023/03/21 02:30:19;;;;;;;7.77;3.63;;;10.60;76.40;;;;;;5050067;28;20463;-74
2023/03/21 02:33:19;;;;;;;5.90;3.77;;;10.60;76.80;;;;;;5044110;28;20439;-74
2023/03/21 02:36:00;;;;;;;7.80;3.70;;;10.60;77.00;;;;;;5049270;28;20427;-76
2023/03/21 02:38:35;;;;;;;5.47;3.60;;;10.60;77.10;;;;;;5045531;28;21126;-77
2023/03/21 02:41:00;;;;;;;5.50;3.50;;;10.60;77.10;;;;;;5042993;28;20557;-76
2023/03/21 02:43:34;;;;;;;10.50;3.83;;;10.60;77.00;;;;;;5029377;28;20533;-76
2023/03/21 02:46:09;;;;;;;5.00;3.50;;;10.60;76.80;;;;;;5050720;28;20252;-75
2023/03/21 02:48:44;;;;;;;9.37;4.20;;;10.60;77.00;;;;;;5047500;28;20509;-75
2023/03/21 02:51:14;;;;;;;10.67;3.90;;;10.50;77.00;;;;;;5047775;28;20470;-75
2023/03/21 02:53:43;;;;;;;5.63;3.70;;;10.50;77.10;;;;;;5050767;28;20962;-75
2023/03/21 02:56:09;;;;;;;7.73;3.67;;;10.40;77.00;;;;;;5050217;28;20411;-76
2023/03/21 02:58:37;;;;;;;6.13;4.10;;;10.30;77.10;;;;;;5053739;28;20496;-75
2023/03/21 03:01:05;;;;;;;6.27;3.70;;;10.30;77.10;;;;;;5045901;28;20243;-76
2023/03/21 03:03:31;;;;;;;7.97;3.87;;;10.20;77.30;;;;;;5051353;28;20423;-75
2023/03/21 03:05:58;;;;;;;7.17;3.50;;;10.20;77.40;;;;;;5054086;28;20415;-76
2023/03/21 03:08:27;;;;;;;6.73;3.80;;;10.30;77.00;;;;;;5052918;28;20950;-74
2023/03/21 03:11:17;;;;;;;5.70;3.10;;;10.30;77.10;;;;;;5048765;28;20468;-76
2023/03/21 03:14:04;;;;;;;5.10;3.50;;;10.30;77.00;;;;;;5052406;28;20427;-77
2023/03/21 03:17:04;;;;;;;7.43;3.80;;;10.40;77.00;;;;;;5052927;28;20419;-75
2023/03/21 03:19:33;;;;;;;7.27;4.20;;;10.40;77.30;;;;;;5052988;28;20411;-77
2023/03/21 03:22:09;;;;;;;11.20;4.10;;;10.40;77.30;;;;;;5050555;28;20462;-76
2023/03/21 03:24:46;;;;;;;6.90;3.33;;;10.30;77.30;;;;;;5048714;28;20487;-76
2023/03/21 03:27:21;;;;;;;5.27;3.30;;;10.30;77.60;;;;;;5048029;28;20422;-75
2023/03/21 03:29:49;;;;;;;5.37;3.57;;;10.20;77.80;;;;;;5047531;28;20430;-73
2023/03/21 03:32:14;;;;;;;5.77;3.40;;;10.30;78.00;;;;;;5028957;28;20896;-76
2023/03/21 03:34:48;;;;;;;3.90;3.10;;;10.30;77.70;;;;;;5050536;28;20545;-77
2023/03/21 03:37:17;;;;;;;4.50;3.10;;;10.30;77.40;;;;;;5049101;28;21002;-76
2023/03/21 03:39:50;;;;;;;3.53;2.60;;;10.30;77.40;;;;;;5046770;28;20445;-76
2023/03/21 03:42:33;;;;;;;5.47;3.00;;;10.20;77.60;;;;;;5027488;28;20812;-77
2023/03/21 03:44:59;;;;;;;6.40;3.47;;;10.20;77.80;;;;;;5049213;28;20881;-76
2023/03/21 03:47:52;;;;;;;4.27;3.20;;;10.10;77.80;;;;;;5044818;28;20555;-77
2023/03/21 03:50:37;;;;;;;4.80;3.27;;;10.20;78.10;;;;;;5049298;28;20467;-77
2023/03/21 03:53:11;;;;;;;3.97;3.00;;;10.20;78.00;;;;;;5049423;28;21103;-76
2023/03/21 03:55:37;;;;;;;7.27;3.10;;;10.20;77.80;;;;;;5048778;28;20419;-77
2023/03/21 03:58:03;;;;;;;4.37;3.03;;;10.20;77.80;;;;;;5025133;28;20474;-77
2023/03/21 04:00:32;;;;;;;6.20;3.57;;;10.10;78.10;;;;;;5048553;28;20466;-76
2023/03/21 04:02:58;;;;;;;8.53;3.97;;;10.20;78.30;;;;;;5052598;28;20626;-74
2023/03/21 04:05:25;;;;;;;5.03;3.10;;;10.10;78.40;;;;;;5032904;28;20514;-77
2023/03/21 04:07:51;;;;;;;6.83;3.80;;;10.20;78.40;;;;;;5049024;28;20522;-74
2023/03/21 04:10:18;;;;;;;6.50;3.77;;;10.20;78.30;;;;;;5050565;28;20770;-76
2023/03/21 04:12:43;;;;;;;9.60;4.13;;;10.10;78.60;;;;;;5052450;28;20439;-75
2023/03/21 04:15:10;;;;;;;10.60;3.90;;;10.20;78.40;;;;;;5052244;28;20423;-75
2023/03/21 04:17:37;;;;;;;7.23;3.47;;;10.20;78.40;;;;;;5033166;28;20219;-76
2023/03/21 04:20:04;;;;;;;8.23;4.30;;;10.20;78.10;;;;;;5044894;28;20589;-78
2023/03/21 04:22:31;;;;;;;6.93;3.80;;;10.20;78.30;;;;;;5046502;28;20419;-76
2023/03/21 04:24:56;;;;;;;7.20;3.93;;;10.20;78.10;;;;;;5049309;28;20426;-75
2023/03/21 04:27:22;;;;;;;6.33;3.77;;;10.10;78.10;;;;;;5046572;28;20424;-76
2023/03/21 04:29:48;;;;;;;6.40;4.10;;;10.00;78.10;;;;;;5049915;28;20203;-74
2023/03/21 04:32:18;;;;;;;9.87;4.03;;;10.00;78.30;;;;;;5050168;28;20197;-77
2023/03/21 04:34:48;;;;;;;7.27;4.20;;;10.00;78.40;;;;;;5050432;28;20237;-76
2023/03/21 04:37:15;;;;;;;5.97;4.00;;;9.90;78.90;;;;;;5049448;28;20474;-75
2023/03/21 04:39:41;;;;;;;6.93;3.67;;;9.90;79.00;;;;;;5044044;28;20443;-76
2023/03/21 04:42:07;;;;;;;8.33;4.07;;;9.90;79.20;;;;;;5041064;28;20447;-76
2023/03/21 04:44:33;;;;;;;6.43;4.10;;;9.80;79.20;;;;;;5050255;28;20419;-74
2023/03/21 04:46:58;;;;;;;5.77;3.80;;;9.80;79.20;;;;;;5049319;28;20193;-76
2023/03/21 04:49:24;;;;;;;5.83;3.83;;;9.70;79.50;;;;;;5050943;28;20199;-75
2023/03/21 04:51:50;;;;;;;9.80;3.70;;;9.70;79.70;;;;;;5034545;28;20223;-75
2023/03/21 04:54:15;;;;;;;7.90;3.50;;;9.70;79.90;;;;;;5054656;28;20510;-75
2023/03/21 04:56:41;;;;;;;6.37;3.43;;;9.60;80.20;;;;;;5050420;28;20243;-74
2023/03/21 04:59:12;;;;;;;4.43;3.30;;;9.60;80.50;;;;;;5055407;28;20187;-74
2023/03/21 05:01:39;;;;;;;6.33;3.70;;;9.50;80.80;;;;;;5049918;28;20204;-74
2023/03/21 05:04:06;;;;;;;4.97;3.50;;;9.50;80.90;;;;;;5045829;28;20504;-73
2023/03/21 05:06:32;;;;;;;5.40;3.40;;;9.50;80.90;;;;;;5045871;28;20531;-77
2023/03/21 05:09:00;;;;;;;5.03;3.57;;;9.40;80.80;;;;;;5045357;28;20415;-76
2023/03/21 05:11:32;;;;;;;6.53;3.73;;;9.40;81.10;;;;;;5044562;28;20509;-77
2023/03/21 05:13:58;;;;;;;6.70;4.10;;;9.40;81.20;;;;;;5046895;28;20431;-75
2023/03/21 05:16:25;;;;;;;6.90;3.80;;;9.40;81.10;;;;;;5052793;28;20434;-75
2023/03/21 05:18:53;;;;;;;9.20;3.60;;;9.40;81.10;;;;;;5046993;28;20430;-79
2023/03/21 05:21:20;;;;;;;10.43;5.03;;;9.40;80.80;;;;;;5048245;28;20502;-77
2023/03/21 05:23:52;;;;;;;5.53;3.97;;;9.30;80.50;;;;;;5032905;28;20438;-75
2023/03/21 05:26:19;;;;;;;9.20;4.20;;;9.20;80.90;;;;;;5046440;28;20419;-76
2023/03/21 05:28:46;;;;;;;6.20;4.00;;;9.20;81.50;;;;;;5025723;28;20430;-76
2023/03/21 05:31:15;;;;;;;6.47;4.30;;;9.20;81.70;;;;;;5047398;28;20487;-75
2023/03/21 05:33:44;;;;;;;4.70;3.63;;;9.20;81.70;;;;;;5028441;28;20481;-75
2023/03/21 05:36:10;;;;;;;7.40;4.43;;;9.10;81.70;;;;;;5047807;28;20918;-75
2023/03/21 05:38:37;;;;;;;6.13;4.10;;;9.10;82.10;;;;;;5043219;28;20586;-75
2023/03/21 05:41:02;;;;;;;7.70;4.73;;;9.20;82.20;;;;;;5048471;28;20482;-75
2023/03/21 05:43:28;;;;;;;7.77;4.83;;;9.20;82.20;;;;;;5047887;28;20430;-75
2023/03/21 05:45:54;;;;;;;6.10;4.20;;;9.10;82.10;;;;;;5047447;28;20560;-76
2023/03/21 05:48:19;;;;;;;9.27;4.07;;;9.10;82.40;;;;;;5049556;28;20215;-74
2023/03/21 05:50:45;;;;;;;7.57;3.93;;;9.20;82.40;;;;;;5047997;28;20224;-75
2023/03/21 05:53:11;;;;;;;4.77;3.80;;;9.30;81.50;;;;;;5044174;28;20662;-74
2023/03/21 05:55:37;;;;;;;8.20;4.97;;;9.30;81.10;;;;;;5050005;28;20189;-74
2023/03/21 05:58:03;;;;;;;10.77;4.50;;;9.40;81.10;;;;;;5045046;28;20493;-75
2023/03/21 06:00:29;;;;;;;8.13;4.20;;;9.40;81.40;;;;;;5048427;28;20864;-74
2023/03/21 06:02:54;;;;;;;7.20;4.97;;;9.40;81.20;;;;;;5052535;28;20193;-78
2023/03/21 06:05:20;;;;;;;7.20;4.37;;;9.40;81.20;;;;;;5051586;28;20419;-74
2023/03/21 06:07:46;;;;;;;6.73;3.97;;;9.40;81.50;;;;;;5049962;28;20269;-74
2023/03/21 06:10:11;;;;;;;6.30;4.80;;;9.50;81.50;;;;;;5048886;28;20213;-75
2023/03/21 06:12:37;;;;;;;6.00;4.20;;;9.50;81.40;;;;;;5050119;28;20721;-74
2023/03/21 06:15:05;;;;;;;6.30;4.20;;;9.60;80.80;;;;;;5053511;28;20184;-75
2023/03/21 06:17:31;;;;;;;7.00;4.60;;;9.60;80.50;;;;;;5050791;28;20208;-74
2023/03/21 06:19:59;;;;;;;7.00;4.63;;;9.60;79.90;;;;;;5047827;28;20426;-75
2023/03/21 06:22:26;;;;;;;7.53;4.80;;;9.60;79.70;;;;;;5048177;28;20426;-74
2023/03/21 06:24:51;;;;;;;8.80;5.03;;;9.60;79.30;;;;;;5052958;28;20427;-74
2023/03/21 06:27:17;;;;;;;5.40;3.93;;;9.60;79.50;;;;;;5056295;28;20427;-73
2023/03/21 06:29:44;;;;;;;9.10;5.10;;;9.60;79.50;;;;;;5050544;28;20192;-76
2023/03/21 06:32:10;;;;;;;7.03;4.20;;;9.60;78.90;;;;;;5035152;28;20443;-75
2023/03/21 06:34:36;;;;;;;8.17;5.00;;;9.50;79.20;;;;;;5050737;28;20472;-76
2023/03/21 06:37:02;;;;;;;9.97;4.83;;;9.50;79.00;;;;;;5052497;28;20597;-76
2023/03/21 06:39:30;;;;;;;9.50;5.30;;;9.50;78.90;;;;;;5044159;28;20244;-76
2023/03/21 06:41:55;;;;;;;5.80;4.67;;;9.50;79.00;;;;;;5048318;28;20462;-76
2023/03/21 06:44:21;;;;;;;7.87;4.47;;;9.50;78.90;;;;;;5044927;28;20426;-76
2023/03/21 06:46:47;;;;;;;34.07;5.47;;;9.50;78.90;;;;;;5043827;28;21147;-76
2023/03/21 06:49:12;;;;;;;8.60;4.80;;;9.60;78.70;;;;;;5048583;28;20192;-76
2023/03/21 06:51:38;;;;;;;6.67;3.87;;;9.60;78.70;;;;;;5029582;28;20212;-74
2023/03/21 06:54:04;;;;;;;9.57;4.80;;;9.60;78.60;;;;;;5054325;28;20199;-74
2023/03/21 06:56:29;;;;;;;7.93;5.10;;;9.60;78.60;;;;;;5052840;28;20184;-76
2023/03/21 06:58:55;;;;;;;8.53;4.33;;;9.60;78.60;;;;;;5047560;28;20589;-74
2023/03/21 07:01:21;;;;;;;8.13;4.70;;;9.70;78.10;;;;;;5049756;28;20467;-74
2023/03/21 07:03:47;;;;;;;6.40;4.37;;;9.80;78.10;;;;;;5050178;28;20181;-76
2023/03/21 07:06:12;;;;;;;8.90;5.03;;;9.80;78.10;;;;;;5049574;28;20176;-75
2023/03/21 07:08:39;;;;;;;15.47;5.37;;;9.90;78.10;;;;;;5035804;28;20419;-74
2023/03/21 07:11:06;;;;;;;14.63;6.50;;;9.90;78.10;;;;;;5033304;28;20220;-73
2023/03/21 07:13:32;;;;;;;11.07;5.63;;;10.00;77.80;;;;;;5052988;28;20418;-74
2023/03/21 07:15:59;;;;;;;12.63;6.53;;;10.10;77.80;;;;;;5032526;28;20526;-73
2023/03/21 07:18:24;;;;;;;11.93;5.87;;;10.10;77.30;;;;;;5047350;28;20462;-76
2023/03/21 07:20:50;;;;;;;13.93;5.87;;;10.20;77.30;;;;;;5033052;28;20532;-74
2023/03/21 07:23:21;;;;;;;8.63;5.13;;;10.30;77.10;;;;;;5047990;28;20211;-74
2023/03/21 07:25:51;;;;;;;7.10;5.10;;;10.30;76.80;;;;;;5050229;28;20434;-75
2023/03/21 07:28:17;;;;;;;8.93;5.07;;;10.50;76.20;;;;;;5052322;28;20955;-75
2023/03/21 07:30:43;;;;;;;9.17;5.40;;;10.60;75.80;;;;;;5043182;28;20491;-76
2023/03/21 07:33:10;;;;;;;8.23;4.73;;;10.70;75.50;;;;;;5049790;28;20468;-76
2023/03/21 07:35:36;;;;;;;12.17;5.37;;;10.80;74.90;;;;;;5053469;28;20441;-75
2023/03/21 07:38:03;;;;;;;7.47;4.50;;;10.90;74.60;;;;;;5052293;28;20463;-75
2023/03/21 07:40:29;;;;;;;9.83;5.63;;;11.00;74.60;;;;;;5053563;28;20495;-75
2023/03/21 07:42:54;;;;;;;12.53;5.37;;;11.00;74.50;;;;;;5035137;28;20962;-75
2023/03/21 07:45:22;;;;;;;7.10;4.73;;;11.00;74.50;;;;;;5054016;28;20319;-74
2023/03/21 07:47:48;;;;;;;6.83;5.03;;;11.20;74.00;;;;;;5049841;28;20216;-76
2023/03/21 07:50:14;;;;;;;10.17;5.37;;;11.20;73.90;;;;;;5044832;28;20458;-74
2023/03/21 07:52:40;;;;;;;7.80;4.83;;;11.40;73.20;;;;;;5040930;28;20184;-74
2023/03/21 07:55:06;;;;;;;8.03;4.50;;;11.40;72.40;;;;;;5039519;28;20434;-75
2023/03/21 07:57:33;;;;;;;8.77;4.87;;;11.40;72.40;;;;;;5031126;28;20524;-76
2023/03/21 07:59:58;;;;;;;8.27;4.50;;;11.40;72.10;;;;;;5042377;28;20510;-76
2023/03/21 08:02:24;;;;;;;6.27;4.63;;;11.50;71.80;;;;;;5045653;28;20757;-75
2023/03/21 08:04:50;;;;;;;8.53;3.90;;;11.50;71.10;;;;;;5049603;28;20200;-75
2023/03/21 08:07:15;;;;;;;6.60;3.77;;;11.60;71.00;;;;;;5048830;28;20271;-74
2023/03/21 08:09:42;;;;;;;5.20;4.10;;;11.70;70.40;;;;;;5031096;28;20315;-75
2023/03/21 08:12:08;;;;;;;5.80;3.57;;;11.70;69.90;;;;;;5026509;28;20193;-75
2023/03/21 08:14:35;;;;;;;8.20;3.80;;;11.70;70.10;;;;;;5042193;28;20434;-76
2023/03/21 08:17:01;;;;;;;5.13;3.07;;;11.80;69.70;;;;;;5044147;28;20223;-73
2023/03/21 08:19:27;;;;;;;4.80;3.23;;;11.80;69.50;;;;;;5045061;28;20910;-74
2023/03/21 08:21:52;;;;;;;6.00;3.60;;;11.90;69.10;;;;;;5042344;28;20446;-75
2023/03/21 08:24:18;;;;;;;4.33;2.80;;;11.90;69.40;;;;;;5044244;28;20184;-76
2023/03/21 08:26:45;;;;;;;5.37;3.67;;;11.90;69.70;;;;;;5042648;28;20196;-75
2023/03/21 08:29:11;;;;;;;4.43;2.93;;;12.10;69.20;;;;;;5047694;28;20419;-75
2023/03/21 08:31:39;;;;;;;4.83;2.90;;;12.10;69.10;;;;;;5025409;28;20462;-75
2023/03/21 08:34:06;;;;;;;4.50;2.87;;;12.20;68.90;;;;;;5042869;28;21107;-75
2023/03/21 08:36:35;;;;;;;5.10;2.60;;;12.20;68.80;;;;;;5047577;28;21324;-74
2023/03/21 08:39:04;;;;;;;5.60;3.00;;;12.40;68.00;;;;;;5044468;28;20439;-76
2023/03/21 08:41:30;;;;;;;6.27;3.40;;;12.40;66.60;;;;;;5043939;28;20474;-75
2023/03/21 08:43:56;;;;;;;5.53;3.10;;;12.50;66.60;;;;;;5028136;28;20419;-76
2023/03/21 08:46:21;;;;;;;6.00;2.70;;;12.60;66.30;;;;;;5051039;28;20968;-76
2023/03/21 08:48:47;;;;;;;5.00;2.87;;;12.60;65.70;;;;;;5048095;28;20660;-77
2023/03/21 08:51:12;;;;;;;5.13;3.03;;;12.80;65.80;;;;;;5049532;28;20205;-74
2023/03/21 08:53:40;;;;;;;7.23;2.97;;;12.80;65.60;;;;;;5047847;28;20553;-74
2023/03/21 08:56:06;;;;;;;5.60;3.10;;;12.90;64.80;;;;;;5052363;28;20193;-75
2023/03/21 08:58:32;;;;;;;7.13;3.33;;;13.00;64.70;;;;;;5051023;28;20517;-76
2023/03/21 09:00:57;;;;;;;5.37;2.80;;;13.00;64.40;;;;;;5048025;28;20992;-74
2023/03/21 09:03:23;;;;;;;3.73;2.27;;;13.00;64.20;;;;;;5046441;28;20183;-75
2023/03/21 09:05:52;;;;;;;3.43;2.57;;;13.20;63.10;;;;;;5050920;28;20181;-77
2023/03/21 09:08:22;;;;;;;4.60;2.50;;;13.40;62.50;;;;;;5044995;28;20242;-77
2023/03/21 09:10:49;;;;;;;4.57;2.60;;;13.40;61.00;;;;;;5044415;28;20540;-73
2023/03/21 09:13:14;;;;;;;5.23;2.03;;;13.40;60.60;;;;;;5048180;28;20978;-76
2023/03/21 09:15:40;;;;;;;4.90;2.10;;;13.50;57.60;;;;;;5048796;28;20454;-76
2023/03/21 09:18:16;;;;;;;6.33;2.00;;;13.60;54.50;;;;;;5044177;28;20219;-75
2023/03/21 09:20:43;;;;;;;4.43;2.20;;;13.70;53.70;;;;;;5043596;28;20207;-74
2023/03/21 09:23:10;;;;;;;4.70;3.07;;;13.80;54.60;;;;;;5050060;28;20432;-77
2023/03/21 09:25:37;;;;;;;2.30;1.87;;;13.90;54.20;;;;;;5043294;28;20443;-76
2023/03/21 09:28:04;;;;;;;5.10;2.67;;;14.00;54.80;;;;;;5033775;28;20427;-76
2023/03/21 09:30:31;;;;;;;10.70;4.77;;;14.20;54.90;;;;;;5026716;28;20970;-74
2023/03/21 09:32:59;;;;;;;3.87;2.27;;;14.30;55.20;;;;;;5050639;28;20802;-76
2023/03/21 09:35:26;;;;;;;4.20;2.10;;;14.30;53.70;;;;;;5029660;28;20443;-74
2023/03/21 09:37:52;;;;;;;4.17;2.20;;;14.20;54.00;;;;;;5024173;28;20540;-76
2023/03/21 09:40:39;;;;;;;2.90;1.77;;;14.30;54.40;;;;;;5043845;28;20571;-76
2023/03/21 09:43:17;;;;;;;4.10;2.07;;;14.40;54.60;;;;;;5041892;28;20218;-76
2023/03/21 09:45:51;;;;;;;3.57;2.30;;;14.60;54.10;;;;;;5050997;28;20418;-74
2023/03/21 09:48:29;;;;;;;3.70;1.90;;;14.70;54.00;;;;;;5025581;28;21297;-74
2023/03/21 09:50:55;;;;;;;2.87;1.80;;;14.70;54.10;;;;;;5049214;28;20465;-76
2023/03/21 09:53:35;;;;;;;3.77;2.23;;;14.90;54.40;;;;;;5054320;28;20453;-74
2023/03/21 09:56:02;;;;;;;2.80;1.83;;;15.20;54.00;;;;;;5053655;28;20433;-75
2023/03/21 09:58:37;;;;;;;4.57;2.27;;;15.50;53.00;;;;;;5050130;28;20474;-74
2023/03/21 10:01:28;;;;;;;3.20;2.20;;;15.70;52.10;;;;;;5049279;28;20564;-75
2023/03/21 10:03:55;;;;;;;5.43;1.87;;;15.70;52.50;;;;;;5044785;28;20502;-74
2023/03/21 10:06:27;;;;;;;3.80;2.30;;;15.80;52.80;;;;;;5049158;28;20443;-76
2023/03/21 10:09:00;;;;;;;3.50;2.07;;;15.80;52.80;;;;;;5051231;28;20910;-75
2023/03/21 10:11:35;;;;;;;3.47;2.07;;;15.90;52.80;;;;;;5046589;28;21043;-75
2023/03/21 10:14:05;;;;;;;5.00;2.80;;;15.90;54.00;;;;;;5048280;28;20430;-75
2023/03/21 10:16:57;;;;;;;5.77;2.60;;;16.00;54.40;;;;;;5042424;28;20436;-74
2023/03/21 10:19:23;;;;;;;2.60;1.93;;;15.90;54.50;;;;;;5047782;28;20517;-76
2023/03/21 10:21:50;;;;;;;3.43;2.10;;;16.00;54.00;;;;;;5046362;28;20497;-75
2023/03/21 10:24:23;;;;;;;4.50;2.10;;;15.90;54.50;;;;;;5048747;28;20434;-75
2023/03/21 10:26:50;;;;;;;2.30;1.70;;;16.10;53.60;;;;;;5054196;28;21063;-76
2023/03/21 10:29:17;;;;;;;2.10;1.77;;;16.10;53.80;;;;;;5052955;28;20414;-76
2023/03/21 10:31:45;;;;;;;3.27;1.97;;;16.50;53.60;;;;;;5055529;28;20496;-76
2023/03/21 10:34:19;;;;;;;16.27;3.77;;;16.60;53.60;;;;;;5053649;28;20427;-76
2023/03/21 10:36:45;;;;;;;5.10;2.50;;;16.80;53.00;;;;;;5049628;28;20480;-75
2023/03/21 10:39:42;;;;;;;5.50;2.40;;;16.70;53.20;;;;;;5027478;28;20439;-74
2023/03/21 10:42:25;;;;;;;4.50;2.30;;;16.60;54.00;;;;;;5044433;28;20462;-75
2023/03/21 10:44:53;;;;;;;3.03;2.33;;;16.80;53.00;;;;;;5024091;28;20433;-75
2023/03/21 10:47:21;;;;;;;4.37;2.53;;;16.90;52.90;;;;;;5043315;28;20431;-75
2023/03/21 10:49:47;;;;;;;7.60;3.20;;;17.20;52.20;;;;;;5049644;28;20434;-75
2023/03/21 10:52:17;;;;;;;3.67;2.10;;;17.20;51.70;;;;;;5045438;28;20439;-75
2023/03/21 10:54:44;;;;;;;3.57;2.23;;;17.30;51.30;;;;;;5021951;28;20194;-76
2023/03/21 10:57:14;;;;;;;3.97;2.40;;;17.30;51.20;;;;;;5044063;28;20497;-75
2023/03/21 10:59:57;;;;;;;3.80;2.07;;;17.30;50.90;;;;;;5041711;28;20419;-75
2023/03/21 11:02:34;;;;;;;2.67;2.10;;;17.60;50.20;;;;;;5051120;28;20423;-77
2023/03/21 11:05:21;;;;;;;2.73;1.90;;;17.60;49.30;;;;;;5046040;28;20493;-76
2023/03/21 11:07:55;;;;;;;2.90;1.50;;;17.70;49.80;;;;;;5044135;28;20427;-74
2023/03/21 11:10:57;;;;;;;4.37;2.10;;;18.10;49.70;;;;;;5047827;28;20471;-76
2023/03/21 11:13:25;;;;;;;3.23;2.00;;;18.40;48.10;;;;;;5041911;28;20936;-76
2023/03/21 11:15:57;;;;;;;3.20;1.50;;;18.50;46.70;;;;;;5050915;28;20442;-77
2023/03/21 11:18:26;;;;;;;2.93;1.57;;;18.10;47.40;;;;;;5046951;28;20472;-76
2023/03/21 11:21:01;;;;;;;3.13;2.00;;;18.00;48.30;;;;;;5029844;28;20962;-76
2023/03/21 11:23:32;;;;;;;2.80;2.00;;;17.70;49.00;;;;;;5048480;28;20418;-76
2023/03/21 11:26:00;;;;;;;3.97;1.60;;;17.40;49.80;;;;;;5028143;28;20454;-75
2023/03/21 11:28:34;;;;;;;2.63;1.63;;;17.20;50.20;;;;;;5046615;28;20445;-74
2023/03/21 11:31:02;;;;;;;4.20;2.00;;;17.40;50.10;;;;;;5037901;28;20455;-76
2023/03/21 11:33:35;;;;;;;3.00;1.57;;;17.50;50.20;;;;;;5046583;28;20790;-74
2023/03/21 11:36:26;;;;;;;2.70;1.60;;;17.40;49.10;;;;;;5043010;28;20431;-76
2023/03/21 11:39:02;;;;;;;2.23;1.50;;;17.20;49.10;;;;;;5048309;28;20580;-76
2023/03/21 11:41:30;;;;;;;2.10;1.50;;;17.30;49.10;;;;;;5048761;28;20466;-76
2023/03/21 11:43:57;;;;;;;2.60;1.30;;;17.30;48.30;;;;;;5048297;28;20427;-76
2023/03/21 11:46:28;;;;;;;2.20;1.37;;;17.20;48.30;;;;;;5043471;28;20426;-74
2023/03/21 11:48:55;;;;;;;2.40;1.50;;;17.30;48.30;;;;;;5045016;28;20417;-75
2023/03/21 11:51:26;;;;;;;5.70;1.33;;;17.30;47.70;;;;;;5049821;28;20850;-75
2023/03/21 11:54:51;;;;;;;2.90;1.60;;;17.20;48.20;;;;;;5031663;28;20531;-76
2023/03/21 11:58:03;;;;;;;3.67;1.50;;;17.20;47.90;;;;;;4967321;28;20487;-76
2023/03/21 12:00:59;;;;;;;2.47;1.40;;;17.30;47.90;;;;;;4891244;29;20457;-76
2023/03/21 12:03:45;;;;;;;1.83;1.43;;;17.30;47.70;;;;;;4911198;29;20485;-77
2023/03/21 12:06:35;;;;;;;1.70;1.40;;;17.30;45.50;;;;;;4910047;29;20430;-76
2023/03/21 12:09:24;;;;;;;15.73;2.80;;;17.30;45.90;;;;;;4908191;29;20434;-75
2023/03/21 12:11:55;;;;;;;4.43;2.27;;;17.20;46.30;;;;;;4910085;29;20480;-76
2023/03/21 12:14:30;;;;;;;3.23;1.60;;;17.40;46.10;;;;;;4911195;29;20437;-75
2023/03/21 12:17:12;;;;;;;2.70;1.30;;;17.50;46.10;;;;;;4908301;29;20472;-75
2023/03/21 12:20:08;;;;;;;4.07;2.10;;;17.40;45.80;;;;;;4909997;29;20535;-75
2023/03/21 12:23:14;;;;;;;2.97;1.60;;;17.40;46.50;;;;;;4913293;29;20974;-75
2023/03/21 12:25:53;;;;;;;7.83;2.90;;;17.60;46.70;;;;;;4871641;29;20431;-75
2023/03/21 12:28:30;;;;;;;3.30;2.00;;;17.70;46.60;;;;;;4957200;28;20448;-76
2023/03/21 12:31:07;;;;;;;3.63;1.30;;;17.70;46.60;;;;;;4970525;28;20481;-75
2023/03/21 12:34:03;;;;;;;2.90;1.70;;;17.80;47.00;;;;;;4972105;28;20866;-75
2023/03/21 12:36:28;;;;;;;3.00;1.50;;;17.90;45.80;;;;;;4971922;28;20434;-77
2023/03/21 12:39:03;;;;;;;2.47;1.40;;;18.00;45.10;;;;;;4971562;28;20465;-75
2023/03/21 12:42:07;;;;;;;2.67;1.60;;;18.00;45.30;;;;;;5044996;28;20209;-76
2023/03/21 12:44:37;;;;;;;3.07;1.67;;;18.10;45.80;;;;;;5011897;28;20427;-75
2023/03/21 12:47:12;;;;;;;1.97;1.20;;;18.30;45.10;;;;;;5048369;28;20425;-77
2023/03/21 12:49:45;;;;;;;1.87;1.57;;;18.30;44.20;;;;;;5053952;28;20851;-76
2023/03/21 12:52:13;;;;;;;4.13;2.07;;;18.40;44.60;;;;;;5027824;28;20454;-76
2023/03/21 12:54:43;;;;;;;4.83;1.90;;;18.40;43.80;;;;;;5048121;28;20428;-75
2023/03/21 12:57:17;;;;;;;5.40;3.20;;;18.10;44.70;;;;;;5046503;28;20474;-74
2023/03/21 13:00:11;;;;;;;3.90;2.67;;;18.20;49.00;;;;;;5053678;28;20499;-76
2023/03/21 13:02:46;;;;;;;4.07;2.70;;;18.40;49.50;;;;;;5053171;28;20475;-76
2023/03/21 13:05:34;;;;;;;5.83;3.03;;;18.60;49.90;;;;;;5051634;28;21021;-77
2023/03/21 13:08:17;;;;;;;7.37;4.17;;;18.70;49.80;;;;;;5051376;28;20509;-75